sensor_id;sensor_type;location;lat;lon;timestamp;temperature;humidity
64715;DHT22;51144;53.002;6.506;2023-04-19T00:01:24;8.40;99.90
64715;DHT22;51144;53.002;6.506;2023-04-19T00:03:50;8.40;99.90
64715;DHT22;51144;53.002;6.506;2023-04-19T00:06:15;8.40;99.90
64715;DHT22;51144;53.002;6.506;2023-04-19T00:08:42;8.50;99.90
64715;DHT22;51144;53.002;6.506;2023-04-19T00:11:08;8.40;99.90
64715;DHT22;51144;53.002;6.506;2023-04-19T00:13:34;8.40;99.90
64715;DHT22;51144;53.002;6.506;2023-04-19T00:16:00;8.40;99.90
64715;DHT22;51144;53.002;6.506;2023-04-19T00:18:25;8.30;99.90
64715;DHT22;51144;53.002;6.506;2023-04-19T00:20:51;8.30;99.90
64715;DHT22;51144;53.002;6.506;2023-04-19T00:23:17;8.30;99.90
64715;DHT22;51144;53.002;6.506;2023-04-19T00:25:45;8.20;99.90
64715;DHT22;51144;53.002;6.506;2023-04-19T00:28:11;8.20;99.90
64715;DHT22;51144;53.002;6.506;2023-04-19T00:30:36;8.20;99.90
64715;DHT22;51144;53.002;6.506;2023-04-19T00:33:02;8.20;99.90
64715;DHT22;51144;53.002;6.506;2023-04-19T00:35:28;8.20;99.90
64715;DHT22;51144;53.002;6.506;2023-04-19T00:37:53;8.10;99.90
64715;DHT22;51144;53.002;6.506;2023-04-19T00:40:19;8.10;99.90
64715;DHT22;51144;53.002;6.506;2023-04-19T00:42:44;8.10;99.90
64715;DHT22;51144;53.002;6.506;2023-04-19T00:45:10;8.10;99.90
64715;DHT22;51144;53.002;6.506;2023-04-19T00:47:37;8.10;99.90
64715;DHT22;51144;53.002;6.506;2023-04-19T00:50:03;8.00;99.90
64715;DHT22;51144;53.002;6.506;2023-04-19T00:52:29;8.10;99.90
64715;DHT22;51144;53.002;6.506;2023-04-19T00:54:57;8.00;99.90
64715;DHT22;51144;53.002;6.506;2023-04-19T00:57:24;8.00;99.90
64715;DHT22;51144;53.002;6.506;2023-04-19T00:59:50;8.00;99.90
64715;DHT22;51144;53.002;6.506;2023-04-19T01:02:16;8.00;99.90
64715;DHT22;51144;53.002;6.506;2023-04-19T01:04:42;7.90;99.90
64715;DHT22;51144;53.002;6.506;2023-04-19T01:07:08;7.90;99.90
64715;DHT22;51144;53.002;6.506;2023-04-19T01:09:34;7.90;99.90
64715;DHT22;51144;53.002;6.506;2023-04-19T01:12:00;7.90;99.90
64715;DHT22;51144;53.002;6.506;2023-04-19T01:14:29;7.80;99.90
64715;DHT22;51144;53.002;6.506;2023-04-19T01:16:56;7.80;99.90
64715;DHT22;51144;53.002;6.506;2023-04-19T01:19:21;7.80;99.90
64715;DHT22;51144;53.002;6.506;2023-04-19T01:21:47;7.80;99.90
64715;DHT22;51144;53.002;6.506;2023-04-19T01:24:13;7.80;99.90
64715;DHT22;51144;53.002;6.506;2023-04-19T01:26:39;7.80;99.90
64715;DHT22;51144;53.002;6.506;2023-04-19T01:29:04;7.80;99.90
64715;DHT22;51144;53.002;6.506;2023-04-19T01:31:30;7.80;99.90
64715;DHT22;51144;53.002;6.506;2023-04-19T01:33:55;7.80;99.90
64715;DHT22;51144;53.002;6.506;2023-04-19T01:36:21;7.80;99.90
64715;DHT22;51144;53.002;6.506;2023-04-19T01:38:47;7.80;99.90
64715;DHT22;51144;53.002;6.506;2023-04-19T01:41:12;7.80;99.90
64715;DHT22;51144;53.002;6.506;2023-04-19T01:43:38;7.80;99.90
64715;DHT22;51144;53.002;6.506;2023-04-19T01:46:04;7.80;99.90
64715;DHT22;51144;53.002;6.506;2023-04-19T01:48:29;7.70;99.90
64715;DHT22;51144;53.002;6.506;2023-04-19T01:50:55;7.80;99.90
64715;DHT22;51144;53.002;6.506;2023-04-19T01:53:21;7.70;99.90
64715;DHT22;51144;53.002;6.506;2023-04-19T01:55:46;7.60;99.90
64715;DHT22;51144;53.002;6.506;2023-04-19T01:58:12;7.60;99.90
64715;DHT22;51144;53.002;6.506;2023-04-19T02:00:37;7.60;99.90
64715;DHT22;51144;53.002;6.506;2023-04-19T02:03:03;7.60;99.90
64715;DHT22;51144;53.002;6.506;2023-04-19T02:05:29;7.60;99.90
64715;DHT22;51144;53.002;6.506;2023-04-19T02:07:56;7.50;99.90
64715;DHT22;51144;53.002;6.506;2023-04-19T02:10:21;7.50;99.90
64715;DHT22;51144;53.002;6.506;2023-04-19T02:12:47;7.50;99.90
64715;DHT22;51144;53.002;6.506;2023-04-19T02:15:13;7.50;99.90
64715;DHT22;51144;53.002;6.506;2023-04-19T02:17:40;7.50;99.90
64715;DHT22;51144;53.002;6.506;2023-04-19T02:20:06;7.40;99.90
64715;DHT22;51144;53.002;6.506;2023-04-19T02:22:33;7.40;99.90
64715;DHT22;51144;53.002;6.506;2023-04-19T02:24:59;7.40;99.90
64715;DHT22;51144;53.002;6.506;2023-04-19T02:27:25;7.40;99.90
64715;DHT22;51144;53.002;6.506;2023-04-19T02:29:50;7.40;99.90
64715;DHT22;51144;53.002;6.506;2023-04-19T02:32:16;7.40;99.90
64715;DHT22;51144;53.002;6.506;2023-04-19T02:34:42;7.30;99.90
64715;DHT22;51144;53.002;6.506;2023-04-19T02:37:07;7.30;99.90
64715;DHT22;51144;53.002;6.506;2023-04-19T02:39:33;7.30;99.90
64715;DHT22;51144;53.002;6.506;2023-04-19T02:41:59;7.30;99.90
64715;DHT22;51144;53.002;6.506;2023-04-19T02:44:25;7.20;99.90
64715;DHT22;51144;53.002;6.506;2023-04-19T02:46:52;7.20;99.90
64715;DHT22;51144;53.002;6.506;2023-04-19T02:49:18;7.30;99.90
64715;DHT22;51144;53.002;6.506;2023-04-19T02:51:44;7.20;99.90
64715;DHT22;51144;53.002;6.506;2023-04-19T02:54:11;7.20;99.90
64715;DHT22;51144;53.002;6.506;2023-04-19T02:56:37;7.20;99.90
64715;DHT22;51144;53.002;6.506;2023-04-19T02:59:03;7.20;99.90
64715;DHT22;51144;53.002;6.506;2023-04-19T03:01:29;7.10;99.90
64715;DHT22;51144;53.002;6.506;2023-04-19T03:03:56;7.10;99.90
64715;DHT22;51144;53.002;6.506;2023-04-19T03:06:22;7.10;99.90
64715;DHT22;51144;53.002;6.506;2023-04-19T03:08:47;7.00;99.90
64715;DHT22;51144;53.002;6.506;2023-04-19T03:11:15;7.00;99.90
64715;DHT22;51144;53.002;6.506;2023-04-19T03:13:41;7.00;99.90
64715;DHT22;51144;53.002;6.506;2023-04-19T03:16:07;6.90;99.90
64715;DHT22;51144;53.002;6.506;2023-04-19T03:18:33;6.90;99.90
64715;DHT22;51144;53.002;6.506;2023-04-19T03:20:59;6.90;99.90
64715;DHT22;51144;53.002;6.506;2023-04-19T03:23:25;6.90;99.90
64715;DHT22;51144;53.002;6.506;2023-04-19T03:25:53;6.80;99.90
64715;DHT22;51144;53.002;6.506;2023-04-19T03:28:19;6.90;99.90
64715;DHT22;51144;53.002;6.506;2023-04-19T03:30:45;6.90;99.90
64715;DHT22;51144;53.002;6.506;2023-04-19T03:33:11;6.80;99.90
64715;DHT22;51144;53.002;6.506;2023-04-19T03:35:37;6.80;99.90
64715;DHT22;51144;53.002;6.506;2023-04-19T03:38:02;6.70;99.90
64715;DHT22;51144;53.002;6.506;2023-04-19T03:40:31;6.70;99.90
64715;DHT22;51144;53.002;6.506;2023-04-19T03:42:57;6.70;99.90
64715;DHT22;51144;53.002;6.506;2023-04-19T03:45:23;6.70;99.90
64715;DHT22;51144;53.002;6.506;2023-04-19T03:47:48;6.60;99.90
64715;DHT22;51144;53.002;6.506;2023-04-19T03:50:14;6.60;99.90
64715;DHT22;51144;53.002;6.506;2023-04-19T03:52:39;6.60;99.90
64715;DHT22;51144;53.002;6.506;2023-04-19T03:55:05;6.50;99.90
64715;DHT22;51144;53.002;6.506;2023-04-19T03:57:31;6.50;99.90
64715;DHT22;51144;53.002;6.506;2023-04-19T03:59:57;6.50;99.90
64715;DHT22;51144;53.002;6.506;2023-04-19T04:02:22;6.50;99.90
64715;DHT22;51144;53.002;6.506;2023-04-19T04:04:57;6.40;99.90
64715;DHT22;51144;53.002;6.506;2023-04-19T04:07:23;6.40;99.90
64715;DHT22;51144;53.002;6.506;2023-04-19T04:09:49;6.40;99.90
64715;DHT22;51144;53.002;6.506;2023-04-19T04:12:15;6.30;99.90
64715;DHT22;51144;53.002;6.506;2023-04-19T04:14:40;6.40;99.90
64715;DHT22;51144;53.002;6.506;2023-04-19T04:17:06;6.30;99.90
64715;DHT22;51144;53.002;6.506;2023-04-19T04:19:31;6.30;99.90
64715;DHT22;51144;53.002;6.506;2023-04-19T04:21:57;6.30;99.90
64715;DHT22;51144;53.002;6.506;2023-04-19T04:24:23;6.20;99.90
64715;DHT22;51144;53.002;6.506;2023-04-19T04:26:48;6.30;99.90
64715;DHT22;51144;53.002;6.506;2023-04-19T04:29:16;6.20;99.90
64715;DHT22;51144;53.002;6.506;2023-04-19T04:31:41;6.20;99.90
64715;DHT22;51144;53.002;6.506;2023-04-19T04:34:07;6.20;99.90
64715;DHT22;51144;53.002;6.506;2023-04-19T04:36:34;6.20;99.90
64715;DHT22;51144;53.002;6.506;2023-04-19T04:39:01;6.20;99.90
64715;DHT22;51144;53.002;6.506;2023-04-19T04:41:27;6.20;99.90
64715;DHT22;51144;53.002;6.506;2023-04-19T04:43:56;6.20;99.90
64715;DHT22;51144;53.002;6.506;2023-04-19T04:46:23;6.20;99.90
64715;DHT22;51144;53.002;6.506;2023-04-19T04:48:48;6.10;99.90
64715;DHT22;51144;53.002;6.506;2023-04-19T04:51:14;6.20;99.90
64715;DHT22;51144;53.002;6.506;2023-04-19T04:53:39;6.20;99.90
64715;DHT22;51144;53.002;6.506;2023-04-19T04:56:05;6.20;99.90
64715;DHT22;51144;53.002;6.506;2023-04-19T04:58:31;6.30;99.90
64715;DHT22;51144;53.002;6.506;2023-04-19T05:00:56;6.30;99.90
64715;DHT22;51144;53.002;6.506;2023-04-19T05:03:22;6.30;99.90
64715;DHT22;51144;53.002;6.506;2023-04-19T05:05:47;6.40;99.90
64715;DHT22;51144;53.002;6.506;2023-04-19T05:08:13;6.60;99.90
64715;DHT22;51144;53.002;6.506;2023-04-19T05:10:39;6.70;99.90
64715;DHT22;51144;53.002;6.506;2023-04-19T05:13:05;6.90;99.90
64715;DHT22;51144;53.002;6.506;2023-04-19T05:15:30;7.00;99.90
64715;DHT22;51144;53.002;6.506;2023-04-19T05:17:56;7.20;99.90
64715;DHT22;51144;53.002;6.506;2023-04-19T05:20:21;7.20;99.90
64715;DHT22;51144;53.002;6.506;2023-04-19T05:22:47;7.40;99.90
64715;DHT22;51144;53.002;6.506;2023-04-19T05:25:12;7.50;99.90
64715;DHT22;51144;53.002;6.506;2023-04-19T05:27:38;7.70;99.90
64715;DHT22;51144;53.002;6.506;2023-04-19T05:30:05;7.90;99.90
64715;DHT22;51144;53.002;6.506;2023-04-19T05:32:31;8.00;99.90
64715;DHT22;51144;53.002;6.506;2023-04-19T05:34:57;8.20;99.90
64715;DHT22;51144;53.002;6.506;2023-04-19T05:37:22;8.10;99.90
64715;DHT22;51144;53.002;6.506;2023-04-19T05:39:48;8.30;99.90
64715;DHT22;51144;53.002;6.506;2023-04-19T05:42:14;8.30;99.90
64715;DHT22;51144;53.002;6.506;2023-04-19T05:44:40;8.50;99.90
64715;DHT22;51144;53.002;6.506;2023-04-19T05:47:05;8.30;99.90
64715;DHT22;51144;53.002;6.506;2023-04-19T05:49:31;8.50;99.90
64715;DHT22;51144;53.002;6.506;2023-04-19T05:51:56;8.60;99.90
64715;DHT22;51144;53.002;6.506;2023-04-19T05:54:22;8.70;99.90
64715;DHT22;51144;53.002;6.506;2023-04-19T05:56:48;9.00;99.90
64715;DHT22;51144;53.002;6.506;2023-04-19T05:59:13;9.00;99.90
64715;DHT22;51144;53.002;6.506;2023-04-19T06:01:39;8.90;99.90
64715;DHT22;51144;53.002;6.506;2023-04-19T06:04:05;9.10;99.90
64715;DHT22;51144;53.002;6.506;2023-04-19T06:06:30;9.20;99.90
64715;DHT22;51144;53.002;6.506;2023-04-19T06:08:56;9.10;99.90
64715;DHT22;51144;53.002;6.506;2023-04-19T06:11:22;9.30;99.90
64715;DHT22;51144;53.002;6.506;2023-04-19T06:13:48;9.50;99.90
64715;DHT22;51144;53.002;6.506;2023-04-19T06:16:15;9.50;99.90
64715;DHT22;51144;53.002;6.506;2023-04-19T06:18:40;9.50;99.90
64715;DHT22;51144;53.002;6.506;2023-04-19T06:21:07;9.30;99.90
64715;DHT22;51144;53.002;6.506;2023-04-19T06:23:33;9.50;99.90
64715;DHT22;51144;53.002;6.506;2023-04-19T06:25:59;9.50;99.90
64715;DHT22;51144;53.002;6.506;2023-04-19T06:28:24;9.70;99.90
64715;DHT22;51144;53.002;6.506;2023-04-19T06:30:50;9.90;99.90
64715;DHT22;51144;53.002;6.506;2023-04-19T06:33:16;9.70;99.90
64715;DHT22;51144;53.002;6.506;2023-04-19T06:35:41;9.80;99.90
64715;DHT22;51144;53.002;6.506;2023-04-19T06:38:07;10.00;99.90
64715;DHT22;51144;53.002;6.506;2023-04-19T06:40:32;10.40;99.90
64715;DHT22;51144;53.002;6.506;2023-04-19T06:42:58;10.30;99.90
64715;DHT22;51144;53.002;6.506;2023-04-19T06:45:24;10.50;99.90
64715;DHT22;51144;53.002;6.506;2023-04-19T06:47:50;10.70;99.90
64715;DHT22;51144;53.002;6.506;2023-04-19T06:50:16;10.70;99.90
64715;DHT22;51144;53.002;6.506;2023-04-19T06:52:42;10.50;98.80
64715;DHT22;51144;53.002;6.506;2023-04-19T06:55:08;10.70;99.30
64715;DHT22;51144;53.002;6.506;2023-04-19T06:57:34;10.70;98.40
64715;DHT22;51144;53.002;6.506;2023-04-19T07:00:00;10.80;99.90
64715;DHT22;51144;53.002;6.506;2023-04-19T07:02:25;10.90;99.30
64715;DHT22;51144;53.002;6.506;2023-04-19T07:04:51;10.50;98.40
64715;DHT22;51144;53.002;6.506;2023-04-19T07:07:17;10.80;98.90
64715;DHT22;51144;53.002;6.506;2023-04-19T07:09:42;10.90;98.50
64715;DHT22;51144;53.002;6.506;2023-04-19T07:12:08;11.30;98.10
64715;DHT22;51144;53.002;6.506;2023-04-19T07:14:34;11.20;97.40
64715;DHT22;51144;53.002;6.506;2023-04-19T07:16:59;11.40;98.50
64715;DHT22;51144;53.002;6.506;2023-04-19T07:19:25;11.40;97.30
64715;DHT22;51144;53.002;6.506;2023-04-19T07:21:52;11.60;97.90
64715;DHT22;51144;53.002;6.506;2023-04-19T07:24:18;11.60;97.10
64715;DHT22;51144;53.002;6.506;2023-04-19T07:26:44;11.80;97.70
64715;DHT22;51144;53.002;6.506;2023-04-19T07:29:09;11.80;97.10
64715;DHT22;51144;53.002;6.506;2023-04-19T07:31:35;12.10;96.80
64715;DHT22;51144;53.002;6.506;2023-04-19T07:34:01;12.20;96.10
64715;DHT22;51144;53.002;6.506;2023-04-19T07:36:26;12.10;95.70
64715;DHT22;51144;53.002;6.506;2023-04-19T07:38:52;12.20;96.00
64715;DHT22;51144;53.002;6.506;2023-04-19T07:41:18;11.90;94.90
64715;DHT22;51144;53.002;6.506;2023-04-19T07:43:43;12.00;94.70
64715;DHT22;51144;53.002;6.506;2023-04-19T07:46:13;11.90;94.90
64715;DHT22;51144;53.002;6.506;2023-04-19T07:48:40;12.10;95.00
64715;DHT22;51144;53.002;6.506;2023-04-19T07:51:10;12.40;95.40
64715;DHT22;51144;53.002;6.506;2023-04-19T07:53:37;12.60;95.80
64715;DHT22;51144;53.002;6.506;2023-04-19T07:56:03;12.70;95.10
64715;DHT22;51144;53.002;6.506;2023-04-19T07:58:29;12.70;94.90
64715;DHT22;51144;53.002;6.506;2023-04-19T08:00:55;12.60;95.10
64715;DHT22;51144;53.002;6.506;2023-04-19T08:03:20;12.80;95.10
64715;DHT22;51144;53.002;6.506;2023-04-19T08:05:46;12.70;93.90
64715;DHT22;51144;53.002;6.506;2023-04-19T08:08:12;12.40;92.70
64715;DHT22;51144;53.002;6.506;2023-04-19T08:10:37;12.50;93.00
64715;DHT22;51144;53.002;6.506;2023-04-19T08:13:03;12.30;92.30
64715;DHT22;51144;53.002;6.506;2023-04-19T08:15:29;12.30;92.70
64715;DHT22;51144;53.002;6.506;2023-04-19T08:17:55;12.30;91.90
64715;DHT22;51144;53.002;6.506;2023-04-19T08:20:20;12.30;92.60
64715;DHT22;51144;53.002;6.506;2023-04-19T08:22:47;12.30;92.60
64715;DHT22;51144;53.002;6.506;2023-04-19T08:25:12;12.70;93.30
64715;DHT22;51144;53.002;6.506;2023-04-19T08:27:38;13.10;93.40
64715;DHT22;51144;53.002;6.506;2023-04-19T08:30:04;13.40;92.40
64715;DHT22;51144;53.002;6.506;2023-04-19T08:32:32;13.60;93.20
64715;DHT22;51144;53.002;6.506;2023-04-19T08:34:57;13.50;89.50
64715;DHT22;51144;53.002;6.506;2023-04-19T08:37:25;13.40;91.20
64715;DHT22;51144;53.002;6.506;2023-04-19T08:39:51;13.40;89.20
64715;DHT22;51144;53.002;6.506;2023-04-19T08:42:17;13.50;90.00
64715;DHT22;51144;53.002;6.506;2023-04-19T08:44:44;13.60;91.20
64715;DHT22;51144;53.002;6.506;2023-04-19T08:47:10;13.40;87.30
64715;DHT22;51144;53.002;6.506;2023-04-19T08:49:38;13.30;85.00
64715;DHT22;51144;53.002;6.506;2023-04-19T08:52:05;13.40;87.80
64715;DHT22;51144;53.002;6.506;2023-04-19T08:54:31;13.50;86.10
64715;DHT22;51144;53.002;6.506;2023-04-19T08:56:58;13.40;86.10
64715;DHT22;51144;53.002;6.506;2023-04-19T08:59:25;13.60;87.00
64715;DHT22;51144;53.002;6.506;2023-04-19T09:01:51;13.80;86.40
64715;DHT22;51144;53.002;6.506;2023-04-19T09:04:16;14.00;85.80
64715;DHT22;51144;53.002;6.506;2023-04-19T09:06:42;13.70;85.00
64715;DHT22;51144;53.002;6.506;2023-04-19T09:11:46;13.90;87.20
64715;DHT22;51144;53.002;6.506;2023-04-19T09:14:16;14.30;85.70
64715;DHT22;51144;53.002;6.506;2023-04-19T09:16:43;14.10;84.00
64715;DHT22;51144;53.002;6.506;2023-04-19T09:19:09;14.00;84.30
64715;DHT22;51144;53.002;6.506;2023-04-19T09:21:37;13.80;79.90
64715;DHT22;51144;53.002;6.506;2023-04-19T09:24:04;14.00;78.90
64715;DHT22;51144;53.002;6.506;2023-04-19T09:26:30;13.80;76.70
64715;DHT22;51144;53.002;6.506;2023-04-19T09:28:57;13.90;78.20
64715;DHT22;51144;53.002;6.506;2023-04-19T09:31:24;14.10;78.80
64715;DHT22;51144;53.002;6.506;2023-04-19T09:33:50;14.10;78.30
64715;DHT22;51144;53.002;6.506;2023-04-19T09:36:29;14.10;77.90
64715;DHT22;51144;53.002;6.506;2023-04-19T09:38:56;14.20;77.50
64715;DHT22;51144;53.002;6.506;2023-04-19T09:41:22;14.60;78.60
64715;DHT22;51144;53.002;6.506;2023-04-19T09:43:48;14.90;77.90
64715;DHT22;51144;53.002;6.506;2023-04-19T09:46:34;15.10;78.90
64715;DHT22;51144;53.002;6.506;2023-04-19T09:51:44;14.90;75.40
64715;DHT22;51144;53.002;6.506;2023-04-19T09:54:12;14.70;76.40
64715;DHT22;51144;53.002;6.506;2023-04-19T09:56:38;14.70;77.60
64715;DHT22;51144;53.002;6.506;2023-04-19T09:59:07;15.30;79.00
64715;DHT22;51144;53.002;6.506;2023-04-19T10:01:46;15.40;76.60
64715;DHT22;51144;53.002;6.506;2023-04-19T10:04:13;15.30;74.30
64715;DHT22;51144;53.002;6.506;2023-04-19T10:06:51;15.50;76.40
64715;DHT22;51144;53.002;6.506;2023-04-19T10:09:19;15.60;78.70
64715;DHT22;51144;53.002;6.506;2023-04-19T10:11:49;15.70;78.90
64715;DHT22;51144;53.002;6.506;2023-04-19T10:14:16;15.90;73.90
64715;DHT22;51144;53.002;6.506;2023-04-19T10:16:44;15.90;74.70
64715;DHT22;51144;53.002;6.506;2023-04-19T10:19:12;16.00;73.60
64715;DHT22;51144;53.002;6.506;2023-04-19T10:21:40;15.90;72.40
64715;DHT22;51144;53.002;6.506;2023-04-19T10:24:07;15.90;68.90
64715;DHT22;51144;53.002;6.506;2023-04-19T10:35:11;15.70;69.60
64715;DHT22;51144;53.002;6.506;2023-04-19T10:38:04;15.80;70.10
64715;DHT22;51144;53.002;6.506;2023-04-19T10:43:16;16.00;68.60
64715;DHT22;51144;53.002;6.506;2023-04-19T10:45:43;16.10;68.40
64715;DHT22;51144;53.002;6.506;2023-04-19T10:51:10;15.90;67.60
64715;DHT22;51144;53.002;6.506;2023-04-19T10:57:00;16.20;72.70
64715;DHT22;51144;53.002;6.506;2023-04-19T11:06:33;16.40;69.10
64715;DHT22;51144;53.002;6.506;2023-04-19T11:08:59;16.30;69.70
64715;DHT22;51144;53.002;6.506;2023-04-19T11:11:27;16.20;68.90
64715;DHT22;51144;53.002;6.506;2023-04-19T11:13:54;16.00;68.20
64715;DHT22;51144;53.002;6.506;2023-04-19T11:16:20;15.60;65.90
64715;DHT22;51144;53.002;6.506;2023-04-19T11:18:46;16.20;69.10
64715;DHT22;51144;53.002;6.506;2023-04-19T11:21:13;16.30;70.20
64715;DHT22;51144;53.002;6.506;2023-04-19T11:23:39;16.50;70.10
64715;DHT22;51144;53.002;6.506;2023-04-19T11:26:09;16.30;70.10
64715;DHT22;51144;53.002;6.506;2023-04-19T11:28:36;16.30;72.20
64715;DHT22;51144;53.002;6.506;2023-04-19T11:31:02;16.30;68.10
64715;DHT22;51144;53.002;6.506;2023-04-19T11:33:33;16.10;67.70
64715;DHT22;51144;53.002;6.506;2023-04-19T11:35:59;15.90;68.30
64715;DHT22;51144;53.002;6.506;2023-04-19T11:38:28;15.90;69.90
64715;DHT22;51144;53.002;6.506;2023-04-19T11:41:00;16.30;68.90
64715;DHT22;51144;53.002;6.506;2023-04-19T11:43:36;16.30;69.80
64715;DHT22;51144;53.002;6.506;2023-04-19T11:46:09;16.50;70.00
64715;DHT22;51144;53.002;6.506;2023-04-19T11:48:35;16.50;69.00
64715;DHT22;51144;53.002;6.506;2023-04-19T11:51:01;16.50;70.40
64715;DHT22;51144;53.002;6.506;2023-04-19T11:53:29;16.40;70.70
64715;DHT22;51144;53.002;6.506;2023-04-19T11:55:56;16.40;68.20
64715;DHT22;51144;53.002;6.506;2023-04-19T11:58:31;16.50;72.60
64715;DHT22;51144;53.002;6.506;2023-04-19T12:01:06;16.40;71.30
64715;DHT22;51144;53.002;6.506;2023-04-19T12:03:34;16.60;69.80
64715;DHT22;51144;53.002;6.506;2023-04-19T12:06:01;16.70;68.50
64715;DHT22;51144;53.002;6.506;2023-04-19T12:08:35;16.80;69.60
64715;DHT22;51144;53.002;6.506;2023-04-19T12:11:01;16.60;68.30
64715;DHT22;51144;53.002;6.506;2023-04-19T12:13:31;16.70;69.40
64715;DHT22;51144;53.002;6.506;2023-04-19T12:15:57;16.70;67.10
64715;DHT22;51144;53.002;6.506;2023-04-19T12:18:23;17.00;66.50
64715;DHT22;51144;53.002;6.506;2023-04-19T12:20:50;16.90;68.20
64715;DHT22;51144;53.002;6.506;2023-04-19T12:23:17;16.70;67.40
64715;DHT22;51144;53.002;6.506;2023-04-19T12:25:44;16.60;66.90
64715;DHT22;51144;53.002;6.506;2023-04-19T12:28:14;16.40;70.70
64715;DHT22;51144;53.002;6.506;2023-04-19T12:30:41;16.20;71.60
64715;DHT22;51144;53.002;6.506;2023-04-19T12:33:07;16.30;71.60
64715;DHT22;51144;53.002;6.506;2023-04-19T12:35:33;16.20;71.90
64715;DHT22;51144;53.002;6.506;2023-04-19T12:37:59;16.20;70.80
64715;DHT22;51144;53.002;6.506;2023-04-19T12:40:26;16.30;72.20
64715;DHT22;51144;53.002;6.506;2023-04-19T12:42:52;16.10;72.50
64715;DHT22;51144;53.002;6.506;2023-04-19T12:45:18;16.30;72.20
64715;DHT22;51144;53.002;6.506;2023-04-19T12:47:45;16.40;73.80
64715;DHT22;51144;53.002;6.506;2023-04-19T12:50:12;16.60;74.60
64715;DHT22;51144;53.002;6.506;2023-04-19T12:52:38;16.40;72.40
64715;DHT22;51144;53.002;6.506;2023-04-19T12:55:05;16.40;72.10
64715;DHT22;51144;53.002;6.506;2023-04-19T12:57:31;16.70;74.90
64715;DHT22;51144;53.002;6.506;2023-04-19T12:59:56;16.60;74.40
64715;DHT22;51144;53.002;6.506;2023-04-19T13:02:22;16.80;74.30
64715;DHT22;51144;53.002;6.506;2023-04-19T13:04:48;16.50;73.10
64715;DHT22;51144;53.002;6.506;2023-04-19T13:07:13;16.40;75.00
64715;DHT22;51144;53.002;6.506;2023-04-19T13:09:39;16.50;73.70
64715;DHT22;51144;53.002;6.506;2023-04-19T13:12:05;16.50;72.40
64715;DHT22;51144;53.002;6.506;2023-04-19T13:14:31;16.60;72.50
64715;DHT22;51144;53.002;6.506;2023-04-19T13:16:57;16.70;73.10
64715;DHT22;51144;53.002;6.506;2023-04-19T13:19:22;16.80;74.60
64715;DHT22;51144;53.002;6.506;2023-04-19T13:21:48;16.80;73.50
64715;DHT22;51144;53.002;6.506;2023-04-19T13:24:14;16.70;72.80
64715;DHT22;51144;53.002;6.506;2023-04-19T13:26:40;16.50;72.40
64715;DHT22;51144;53.002;6.506;2023-04-19T13:29:06;16.40;73.20
64715;DHT22;51144;53.002;6.506;2023-04-19T13:31:34;16.50;73.40
64715;DHT22;51144;53.002;6.506;2023-04-19T13:34:00;16.60;71.90
64715;DHT22;51144;53.002;6.506;2023-04-19T13:36:25;16.80;74.70
64715;DHT22;51144;53.002;6.506;2023-04-19T13:38:54;16.60;73.00
64715;DHT22;51144;53.002;6.506;2023-04-19T13:41:20;16.50;72.30
64715;DHT22;51144;53.002;6.506;2023-04-19T13:43:46;16.50;72.10
64715;DHT22;51144;53.002;6.506;2023-04-19T13:46:12;16.50;72.50
64715;DHT22;51144;53.002;6.506;2023-04-19T13:48:38;16.70;73.00
64715;DHT22;51144;53.002;6.506;2023-04-19T13:51:04;17.20;73.50
64715;DHT22;51144;53.002;6.506;2023-04-19T13:53:30;17.40;72.30
64715;DHT22;51144;53.002;6.506;2023-04-19T13:55:56;17.10;69.00
64715;DHT22;51144;53.002;6.506;2023-04-19T13:58:21;16.80;71.50
64715;DHT22;51144;53.002;6.506;2023-04-19T14:00:49;16.90;73.60
64715;DHT22;51144;53.002;6.506;2023-04-19T14:03:15;17.10;74.60
64715;DHT22;51144;53.002;6.506;2023-04-19T14:05:41;16.90;70.60
64715;DHT22;51144;53.002;6.506;2023-04-19T14:08:06;17.00;71.40
64715;DHT22;51144;53.002;6.506;2023-04-19T14:10:33;17.10;71.00
64715;DHT22;51144;53.002;6.506;2023-04-19T14:12:59;16.70;71.20
64715;DHT22;51144;53.002;6.506;2023-04-19T14:15:24;17.10;72.00
64715;DHT22;51144;53.002;6.506;2023-04-19T14:17:50;17.00;71.20
64715;DHT22;51144;53.002;6.506;2023-04-19T14:20:16;17.10;72.70
64715;DHT22;51144;53.002;6.506;2023-04-19T14:22:42;17.50;70.00
64715;DHT22;51144;53.002;6.506;2023-04-19T14:25:08;17.60;71.70
64715;DHT22;51144;53.002;6.506;2023-04-19T14:27:34;17.60;72.80
64715;DHT22;51144;53.002;6.506;2023-04-19T14:30:00;17.70;70.40
64715;DHT22;51144;53.002;6.506;2023-04-19T14:32:26;17.40;71.40
64715;DHT22;51144;53.002;6.506;2023-04-19T14:34:52;16.90;68.20
64715;DHT22;51144;53.002;6.506;2023-04-19T14:37:19;16.90;72.00
64715;DHT22;51144;53.002;6.506;2023-04-19T14:39:45;16.60;70.10
64715;DHT22;51144;53.002;6.506;2023-04-19T14:42:11;16.90;72.20
64715;DHT22;51144;53.002;6.506;2023-04-19T14:44:36;16.80;73.60
64715;DHT22;51144;53.002;6.506;2023-04-19T14:47:02;17.10;74.50
64715;DHT22;51144;53.002;6.506;2023-04-19T14:49:28;16.40;71.50
64715;DHT22;51144;53.002;6.506;2023-04-19T14:51:53;16.00;70.50
64715;DHT22;51144;53.002;6.506;2023-04-19T14:54:19;16.10;75.20
64715;DHT22;51144;53.002;6.506;2023-04-19T14:56:44;15.70;78.30
64715;DHT22;51144;53.002;6.506;2023-04-19T14:59:11;15.70;81.60
64715;DHT22;51144;53.002;6.506;2023-04-19T15:01:37;15.70;82.80
64715;DHT22;51144;53.002;6.506;2023-04-19T15:04:02;15.50;84.10
64715;DHT22;51144;53.002;6.506;2023-04-19T15:06:28;15.30;85.60
64715;DHT22;51144;53.002;6.506;2023-04-19T15:08:53;15.10;87.10
64715;DHT22;51144;53.002;6.506;2023-04-19T15:11:19;14.80;85.60
64715;DHT22;51144;53.002;6.506;2023-04-19T15:13:45;14.50;86.10
64715;DHT22;51144;53.002;6.506;2023-04-19T15:16:10;14.30;88.20
64715;DHT22;51144;53.002;6.506;2023-04-19T15:18:36;14.20;90.70
64715;DHT22;51144;53.002;6.506;2023-04-19T15:21:02;14.40;90.00
64715;DHT22;51144;53.002;6.506;2023-04-19T15:23:28;14.60;90.60
64715;DHT22;51144;53.002;6.506;2023-04-19T15:25:54;14.50;88.70
64715;DHT22;51144;53.002;6.506;2023-04-19T15:28:22;14.10;88.80
64715;DHT22;51144;53.002;6.506;2023-04-19T15:30:59;14.10;90.60
64715;DHT22;51144;53.002;6.506;2023-04-19T15:33:25;14.10;90.80
64715;DHT22;51144;53.002;6.506;2023-04-19T15:35:51;13.90;90.10
64715;DHT22;51144;53.002;6.506;2023-04-19T15:38:17;13.90;91.00
64715;DHT22;51144;53.002;6.506;2023-04-19T15:40:43;13.80;90.80
64715;DHT22;51144;53.002;6.506;2023-04-19T15:43:09;13.90;90.30
64715;DHT22;51144;53.002;6.506;2023-04-19T15:45:34;13.60;90.00
64715;DHT22;51144;53.002;6.506;2023-04-19T15:48:00;13.50;89.40
64715;DHT22;51144;53.002;6.506;2023-04-19T15:50:26;13.60;90.70
64715;DHT22;51144;53.002;6.506;2023-04-19T15:52:51;13.50;90.40
64715;DHT22;51144;53.002;6.506;2023-04-19T15:55:17;13.60;90.80
64715;DHT22;51144;53.002;6.506;2023-04-19T15:57:43;13.70;90.80
64715;DHT22;51144;53.002;6.506;2023-04-19T16:00:11;13.60;91.00
64715;DHT22;51144;53.002;6.506;2023-04-19T16:02:36;13.70;91.00